Time;durP1;ratioP1;P1;durP2;ratioP2;P2;SDS_P1;SDS_P2;PMS_P1;PMS_P2;Temp;Humidity;BMP_temperature;BMP_pressure;BME280_temperature;BME280_humidity;BME280_pressure;Samples;Min_cycle;Max_cycle;Signal;HPM_P1;HPM_P2
2023/05/23 00:03:02;;;;;;;11.60;8.40;;;;;;;12.21;68.65;98517.32;225384;1283;22555;-74
2023/05/23 00:08:07;;;;;;;10.90;8.30;;;;;;;12.09;68.90;98516.09;225363;1281;22556;-74
2023/05/23 00:13:24;;;;;;;11.30;8.60;;;;;;;12.00;69.10;98516.55;225441;1281;22539;-74
2023/05/23 00:18:32;;;;;;;12.50;8.70;;;;;;;11.90;69.27;98509.16;225435;1283;22563;-75
2023/05/23 00:23:41;;;;;;;13.20;9.10;;;;;;;11.81;69.52;98507.33;225407;1283;22563;-75
2023/05/23 00:28:48;;;;;;;11.50;8.40;;;;;;;11.72;69.87;98507.49;225433;1283;22594;-75
2023/05/23 00:33:54;;;;;;;12.60;8.50;;;;;;;11.61;70.15;98503.56;225423;1283;22548;-75
2023/05/23 00:39:08;;;;;;;13.20;9.00;;;;;;;11.52;70.41;98503.92;225293;1281;23388;-75
2023/05/23 00:44:29;;;;;;;12.80;8.80;;;;;;;11.42;70.62;98503.48;225385;1277;22592;-75
2023/05/23 00:49:43;;;;;;;14.10;9.50;;;;;;;11.33;71.13;98503.63;225492;1281;22544;-75
2023/05/23 00:54:48;;;;;;;13.00;9.20;;;;;;;11.22;71.29;98502.54;225348;1283;22573;-75
2023/05/23 00:59:53;;;;;;;11.70;9.00;;;;;;;11.12;71.47;98500.23;225509;1281;24268;-75
2023/05/23 01:05:07;;;;;;;11.80;9.50;;;;;;;11.01;71.88;98495.30;225400;1265;22559;-74
2023/05/23 01:10:21;;;;;;;13.50;9.40;;;;;;;10.92;72.16;98499.25;225319;1281;22531;-75
2023/05/23 01:15:55;;;;;;;11.90;9.60;;;;;;;10.83;72.32;98501.28;225399;1283;22670;-75
2023/05/23 01:21:11;;;;;;;13.80;9.90;;;;;;;10.75;72.67;98501.05;225385;1283;22720;-75
2023/05/23 01:26:42;;;;;;;12.80;10.30;;;;;;;10.67;72.76;98496.24;225330;1281;22557;-74
2023/05/23 01:32:08;;;;;;;16.20;10.90;;;;;;;10.59;72.95;98499.61;225447;1279;22536;-74
2023/05/23 01:37:20;;;;;;;16.90;11.90;;;;;;;10.50;73.25;98499.73;225343;1283;22530;-74
2023/05/23 01:42:47;;;;;;;18.20;12.50;;;;;;;10.43;73.65;98498.83;225308;1283;22582;-74
2023/05/23 01:47:50;;;;;;;16.50;12.30;;;;;;;10.37;74.01;98494.37;225368;1281;22547;-74
2023/05/23 01:52:55;;;;;;;14.90;12.10;;;;;;;10.32;74.05;98493.03;225364;1283;22539;-74
2023/05/23 01:58:04;;;;;;;16.40;12.00;;;;;;;10.26;74.26;98494.24;225469;1283;25065;-74
2023/05/23 02:03:15;;;;;;;14.90;11.50;;;;;;;10.22;74.72;98494.06;225452;1283;22538;-74
2023/05/23 02:08:18;;;;;;;18.20;11.20;;;;;;;10.17;74.88;98491.54;225367;1283;22592;-74
2023/05/23 02:13:20;;;;;;;13.50;10.70;;;;;;;10.12;74.83;98485.10;225419;1283;22554;-75
2023/05/23 02:18:30;;;;;;;18.70;11.50;;;;;;;10.09;74.81;98478.42;225358;1283;23000;-75
2023/05/23 02:23:36;;;;;;;13.20;10.00;;;;;;;10.06;75.31;98474.60;225417;1283;22543;-75
2023/05/23 02:29:08;;;;;;;12.10;9.90;;;;;;;10.03;75.19;98478.17;225353;1283;22542;-74
2023/05/23 02:34:16;;;;;;;15.20;9.90;;;;;;;10.01;75.57;98480.55;225355;1283;22561;-74
2023/05/23 02:39:23;;;;;;;12.10;9.20;;;;;;;9.99;75.59;98478.91;225422;1280;22558;-74
2023/05/23 02:44:29;;;;;;;13.70;9.70;;;;;;;9.94;75.52;98480.17;225347;1282;24247;-74
2023/05/23 02:49:36;;;;;;;13.30;10.80;;;;;;;9.90;75.68;98478.20;225403;1282;22709;-74
2023/05/23 02:54:42;;;;;;;17.40;10.20;;;;;;;9.87;75.91;98476.77;225402;1281;22591;-74
2023/05/23 02:59:45;;;;;;;12.70;10.30;;;;;;;9.86;76.14;98476.55;225432;1280;22545;-75
2023/05/23 03:04:50;;;;;;;12.80;10.60;;;;;;;9.86;75.81;98473.09;225408;1280;22552;-74
2023/05/23 03:09:56;;;;;;;14.30;11.00;;;;;;;9.86;76.25;98472.48;225344;1277;22540;-74
2023/05/23 03:14:58;;;;;;;12.90;10.40;;;;;;;9.89;76.07;98468.82;225359;1281;22711;-74
2023/05/23 03:20:04;;;;;;;13.60;10.40;;;;;;;9.93;76.24;98463.97;225223;1283;22546;-75
2023/05/23 03:25:12;;;;;;;12.10;9.90;;;;;;;10.06;76.46;98463.86;225428;1283;22550;-75
2023/05/23 03:30:17;;;;;;;13.30;10.00;;;;;;;10.35;76.16;98456.68;225347;1283;22541;-75
2023/05/23 03:35:20;;;;;;;10.40;9.30;;;;;;;10.63;75.86;98446.36;225399;1279;22550;-76
2023/05/23 03:40:23;;;;;;;11.40;9.50;;;;;;;10.91;75.57;98445.33;225331;1280;23169;-75
2023/05/23 03:45:29;;;;;;;12.50;9.40;;;;;;;11.11;75.20;98447.46;225409;1279;22603;-75
2023/05/23 03:50:32;;;;;;;13.80;9.50;;;;;;;11.33;75.00;98446.86;225312;1280;22551;-75
2023/05/23 03:55:45;;;;;;;12.60;10.00;;;;;;;11.45;74.78;98444.20;225280;1283;22534;-75
2023/05/23 04:01:17;;;;;;;12.50;9.60;;;;;;;11.55;75.12;98444.77;225263;1283;23006;-75
2023/05/23 04:06:22;;;;;;;14.80;9.90;;;;;;;11.67;74.86;98446.62;225290;1283;22571;-75
2023/05/23 04:11:24;;;;;;;12.40;10.70;;;;;;;11.77;74.88;98444.92;225317;1283;22576;-75
2023/05/23 04:16:34;;;;;;;13.00;9.70;;;;;;;11.83;74.75;98441.08;225363;1279;22555;-75
2023/05/23 04:21:43;;;;;;;14.50;9.80;;;;;;;11.91;74.70;98442.44;225379;1283;22547;-75
2023/05/23 04:26:52;;;;;;;12.50;9.50;;;;;;;11.98;74.51;98442.45;225404;1280;22594;-75
2023/05/23 04:31:55;;;;;;;12.70;10.20;;;;;;;12.03;74.41;98440.04;225403;1280;22543;-75
2023/05/23 04:37:01;;;;;;;14.50;10.00;;;;;;;12.08;74.59;98429.64;225426;1280;24355;-74
2023/05/23 04:42:23;;;;;;;11.90;9.80;;;;;;;12.16;74.82;98428.89;225387;1283;22561;-75
2023/05/23 04:47:35;;;;;;;14.60;10.50;;;;;;;12.26;74.97;98424.48;225333;1283;23020;-75
2023/05/23 04:52:50;;;;;;;13.60;11.50;;;;;;;12.40;75.05;98429.61;225329;1283;22943;-75
2023/05/23 04:57:53;;;;;;;12.90;11.20;;;;;;;12.56;75.09;98426.10;225410;1280;23864;-74
2023/05/23 05:02:55;;;;;;;12.30;10.90;;;;;;;12.74;75.11;98419.34;225312;1283;22550;-74
2023/05/23 05:08:04;;;;;;;13.80;10.60;;;;;;;12.91;74.97;98415.55;225249;1283;22593;-74
2023/05/23 05:13:12;;;;;;;14.70;12.20;;;;;;;13.10;75.19;98421.09;225311;1283;22551;-74
2023/05/23 05:18:26;;;;;;;12.70;11.20;;;;;;;13.30;75.36;98421.80;225289;1283;22546;-76
2023/05/23 05:23:32;;;;;;;14.60;12.60;;;;;;;13.58;75.54;98423.05;225284;1283;22543;-75
2023/05/23 05:28:37;;;;;;;16.10;12.80;;;;;;;13.87;75.20;98417.30;225382;1276;22552;-75
2023/05/23 05:33:49;;;;;;;15.20;13.00;;;;;;;14.13;74.91;98416.72;225354;1275;22543;-75
2023/05/23 05:38:52;;;;;;;15.30;12.80;;;;;;;14.40;74.95;98409.14;225126;1277;24186;-75
2023/05/23 05:44:00;;;;;;;14.60;12.40;;;;;;;14.70;74.25;98412.15;225064;1277;22565;-75
2023/05/23 05:49:05;;;;;;;18.60;12.30;;;;;;;15.00;73.95;98410.37;225033;1260;22539;-76
2023/05/23 05:54:10;;;;;;;15.60;12.80;;;;;;;15.29;73.33;98408.94;225031;1260;22574;-76
2023/05/23 05:59:16;;;;;;;15.60;11.80;;;;;;;15.55;72.70;98410.16;224828;1260;22748;-76
2023/05/23 06:04:19;;;;;;;15.10;12.20;;;;;;;15.71;71.84;98408.58;224593;1260;138227;-76
2023/05/23 06:09:32;;;;;;;17.90;12.70;;;;;;;15.90;71.77;98400.34;224741;1270;138595;-76
2023/05/23 06:14:36;;;;;;;15.40;12.80;;;;;;;16.20;71.92;98404.69;224991;1271;138948;-76
2023/05/23 06:19:39;;;;;;;20.70;12.20;;;;;;;16.47;71.54;98400.59;224955;1260;138911;-76
2023/05/23 06:24:50;;;;;;;16.90;12.10;;;;;;;16.68;70.92;98402.64;225050;1272;138781;-76
2023/05/23 06:29:53;;;;;;;17.70;12.40;;;;;;;16.84;70.80;98392.29;224992;1276;138851;-76
2023/05/23 06:34:56;;;;;;;16.50;12.80;;;;;;;17.09;70.74;98385.17;224945;1271;22552;-77
2023/05/23 06:39:59;;;;;;;17.30;12.90;;;;;;;17.40;70.80;98385.61;224758;1270;139103;-77
2023/05/23 06:45:03;;;;;;;16.70;12.30;;;;;;;17.72;70.51;98382.48;224951;1261;138812;-76
2023/05/23 06:50:12;;;;;;;16.10;12.40;;;;;;;17.99;70.08;98379.84;225138;1262;139235;-77
2023/05/23 06:55:32;;;;;;;18.50;12.40;;;;;;;18.23;69.55;98372.86;225071;1271;138838;-77
2023/05/23 07:00:37;;;;;;;17.90;12.30;;;;;;;18.50;69.11;98369.77;224940;1275;138792;-76
2023/05/23 07:05:52;;;;;;;18.30;13.40;;;;;;;18.80;68.86;98366.78;225104;1261;139775;-75
2023/05/23 07:11:00;;;;;;;17.00;12.60;;;;;;;19.07;68.22;98362.52;225172;1276;22536;-75
2023/05/23 07:16:09;;;;;;;15.20;11.60;;;;;;;19.30;67.75;98355.33;225238;1264;138425;-76
2023/05/23 07:21:19;;;;;;;15.30;12.60;;;;;;;19.48;67.12;98349.66;225049;1275;138045;-75
2023/05/23 07:26:22;;;;;;;15.60;13.00;;;;;;;19.67;66.82;98348.48;225062;1275;138053;-79
2023/05/23 07:31:32;;;;;;;14.10;11.50;;;;;;;19.84;66.27;98342.87;225254;1282;138145;-75
2023/05/23 07:36:41;;;;;;;15.60;13.10;;;;;;;19.95;66.00;98338.59;225057;1276;138416;-75
2023/05/23 07:41:45;;;;;;;17.60;14.20;;;;;;;20.06;65.65;98337.85;225035;1275;138210;-75
2023/05/23 07:46:47;;;;;;;18.30;13.80;;;;;;;20.09;65.74;98337.98;225184;1275;22539;-75
2023/05/23 07:51:50;;;;;;;17.50;14.80;;;;;;;20.13;65.32;98342.88;225204;1276;137794;-77
2023/05/23 07:56:59;;;;;;;19.90;14.00;;;;;;;20.18;65.41;98343.17;224984;1276;138484;-78
2023/05/23 08:02:06;;;;;;;19.20;13.70;;;;;;;20.38;65.64;98341.30;224944;1282;138203;-76
2023/05/23 08:07:10;;;;;;;17.70;14.00;;;;;;;20.57;65.03;98330.21;225839;1269;138351;-75
2023/05/23 08:12:20;;;;;;;15.90;12.80;;;;;;;20.77;64.95;98332.95;224611;1264;138257;-75
2023/05/23 08:17:26;;;;;;;16.50;12.20;;;;;;;20.96;64.46;98329.08;225013;1284;22565;-76
2023/05/23 08:22:33;;;;;;;12.10;10.40;;;;;;;21.09;63.92;98327.54;225163;1280;22924;-77
2023/05/23 08:27:35;;;;;;;13.80;10.80;;;;;;;21.17;63.39;98322.02;224929;1279;137768;-76
2023/05/23 08:32:46;;;;;;;14.00;10.60;;;;;;;21.29;63.03;98320.61;224885;1276;138244;-76
2023/05/23 08:37:49;;;;;;;13.60;9.40;;;;;;;21.45;62.98;98321.08;225105;1269;138725;-76
2023/05/23 08:42:52;;;;;;;11.70;9.30;;;;;;;21.61;62.42;98314.67;224948;1277;137875;-76
2023/05/23 08:48:12;;;;;;;11.60;8.20;;;;;;;21.77;62.16;98315.19;224784;1284;137908;-75
2023/05/23 08:53:19;;;;;;;12.50;9.20;;;;;;;21.97;61.62;98312.67;224848;1284;22542;-75
2023/05/23 08:58:28;;;;;;;9.30;8.40;;;;;;;22.14;60.82;98315.82;224817;1277;137483;-76
2023/05/23 09:03:32;;;;;;;13.60;8.10;;;;;;;22.26;60.09;98312.34;224935;1277;137908;-75
2023/05/23 09:08:50;;;;;;;10.30;8.40;;;;;;;22.45;59.90;98306.71;224793;1278;137764;-76
2023/05/23 09:13:54;;;;;;;11.60;8.90;;;;;;;22.61;59.17;98312.13;224977;1277;138548;-75
2023/05/23 09:18:57;;;;;;;10.60;9.20;;;;;;;22.76;58.86;98317.35;224870;1277;137898;-75
2023/05/23 09:24:13;;;;;;;9.70;8.30;;;;;;;22.91;58.16;98322.71;224965;1282;137941;-75
2023/05/23 09:29:19;;;;;;;10.80;8.60;;;;;;;23.07;58.09;98316.62;225264;1278;23632;-76
2023/05/23 09:34:21;;;;;;;14.80;8.70;;;;;;;23.31;57.85;98308.30;224909;1278;137507;-76
2023/05/23 09:39:29;;;;;;;11.30;9.20;;;;;;;23.50;57.29;98306.90;224871;1279;137864;-77
2023/05/23 09:44:31;;;;;;;12.10;9.30;;;;;;;23.73;57.24;98296.41;224835;1276;137980;-75
2023/05/23 09:49:40;;;;;;;15.30;9.70;;;;;;;24.03;57.32;98290.09;224735;1280;138048;-75
2023/05/23 09:54:43;;;;;;;12.60;9.30;;;;;;;24.37;56.78;98281.25;224973;1281;137956;-75
2023/05/23 09:59:53;;;;;;;16.40;10.50;;;;;;;24.61;56.23;98273.57;224955;1268;138082;-76
2023/05/23 10:04:56;;;;;;;18.50;9.70;;;;;;;24.65;55.80;98267.41;225049;1268;22553;-75
2023/05/23 10:10:03;;;;;;;10.30;9.30;;;;;;;24.86;56.05;98261.38;225012;1277;137730;-76
2023/05/23 10:15:08;;;;;;;10.70;9.70;;;;;;;24.98;55.16;98255.75;224863;1273;137929;-76
2023/05/23 10:20:41;;;;;;;14.10;10.10;;;;;;;25.13;54.76;98255.37;224975;1276;138032;-86
2023/05/23 10:25:54;;;;;;;14.50;9.50;;;;;;;25.34;54.88;98255.23;224870;1262;138352;-75
2023/05/23 10:30:56;;;;;;;11.50;9.00;;;;;;;25.50;54.21;98258.34;224933;1276;137935;-75
2023/05/23 10:36:08;;;;;;;12.20;9.90;;;;;;;25.60;53.84;98256.98;224842;1279;137911;-77
2023/05/23 10:41:30;;;;;;;10.80;9.30;;;;;;;25.75;53.41;98257.71;224889;1278;194123;-76
2023/05/23 10:46:56;;;;;;;12.60;9.40;;;;;;;25.95;53.23;98249.67;224938;1268;22576;-76
2023/05/23 10:51:59;;;;;;;11.70;10.50;;;;;;;26.24;52.84;98247.84;224971;1260;137620;-77
2023/05/23 10:57:03;;;;;;;9.50;8.60;;;;;;;26.57;52.33;98249.90;224867;1271;138019;-76
2023/05/23 11:02:17;;;;;;;11.60;9.30;;;;;;;26.90;52.08;98247.23;225011;1280;137809;-76
2023/05/23 11:07:28;;;;;;;10.50;9.10;;;;;;;27.12;51.27;98242.65;225072;1275;138087;-76
2023/05/23 11:12:41;;;;;;;10.60;9.60;;;;;;;27.13;50.80;98242.32;225098;1263;137973;-77
2023/05/23 11:17:52;;;;;;;11.00;9.50;;;;;;;27.10;50.44;98235.27;224927;1275;137886;-76
2023/05/23 11:23:03;;;;;;;10.80;8.50;;;;;;;27.10;50.42;98225.98;224969;1260;22572;-76
2023/05/23 11:28:15;;;;;;;12.50;9.20;;;;;;;26.97;50.69;98219.73;225095;1279;137790;-76
2023/05/23 11:33:20;;;;;;;11.00;9.20;;;;;;;26.82;50.18;98222.35;225146;1275;137774;-77
2023/05/23 11:38:24;;;;;;;10.60;8.70;;;;;;;26.46;50.29;98220.48;225011;1279;137919;-77
2023/05/23 11:43:26;;;;;;;14.10;9.50;;;;;;;26.20;50.44;98232.44;225053;1275;138371;-76
2023/05/23 11:48:29;;;;;;;12.70;6.80;;;;;;;25.63;49.51;98288.67;225054;1275;138420;-76
2023/05/23 11:53:32;;;;;;;10.60;8.90;;;;;;;24.37;49.51;98295.63;225035;1264;138007;-75
2023/05/23 11:58:36;;;;;;;10.20;8.60;;;;;;;23.09;51.58;98326.23;225172;1275;22579;-75
2023/05/23 12:03:52;;;;;;;9.80;8.90;;;;;;;22.01;53.74;98343.39;225004;1259;137725;-75
2023/05/23 12:08:55;;;;;;;9.30;8.50;;;;;;;21.14;55.73;98351.79;225072;1275;137645;-75
2023/05/23 12:14:00;;;;;;;12.10;8.70;;;;;;;20.49;58.11;98343.92;225127;1275;137166;-75
2023/05/23 12:19:13;;;;;;;13.50;10.40;;;;;;;19.51;63.05;98350.04;225116;1279;138278;-72
2023/05/23 12:24:31;;;;;;;11.40;9.30;;;;;;;18.38;66.76;98341.31;224988;1259;138825;-72
2023/05/23 12:29:52;;;;;;;11.80;9.50;;;;;;;17.37;69.70;98307.90;225062;1281;139242;-71
2023/05/23 12:35:04;;;;;;;13.00;9.40;;;;;;;16.75;72.04;98278.82;225319;1275;22593;-72
2023/05/23 12:40:27;;;;;;;12.20;10.00;;;;;;;16.37;73.53;98274.26;225035;1259;139132;-72
2023/05/23 12:46:03;;;;;;;12.40;10.80;;;;;;;16.15;74.74;98267.29;225103;1276;138745;-72
2023/05/23 12:51:09;;;;;;;12.80;11.10;;;;;;;16.10;75.89;98267.33;224759;1278;139115;-70
2023/05/23 12:56:17;;;;;;;15.10;13.30;;;;;;;16.15;76.47;98270.53;224713;1271;139119;-71
2023/05/23 13:01:22;;;;;;;13.10;11.80;;;;;;;16.28;77.10;98265.61;224716;1278;138798;-71
2023/05/23 13:06:24;;;;;;;10.90;9.70;;;;;;;16.55;77.65;98272.38;224518;1281;138986;-71
2023/05/23 13:11:30;;;;;;;7.50;6.80;;;;;;;16.93;77.92;98269.11;224735;1271;22558;-72
2023/05/23 13:16:35;;;;;;;9.10;8.20;;;;;;;17.39;78.06;98258.31;224794;1278;22715;-72
2023/05/23 13:21:42;;;;;;;9.70;8.70;;;;;;;17.85;77.50;98258.98;224850;1275;138219;-72
2023/05/23 13:26:51;;;;;;;10.60;9.20;;;;;;;18.15;77.14;98256.11;225027;1279;138466;-72
2023/05/23 13:32:00;;;;;;;7.70;6.90;;;;;;;18.34;76.85;98253.65;224919;1264;138652;-74
2023/05/23 13:37:09;;;;;;;6.30;5.20;;;;;;;18.46;76.44;98255.00;224877;1275;138458;-72
2023/05/23 13:42:15;;;;;;;6.50;5.80;;;;;;;18.53;75.73;98255.68;224997;1280;138481;-75
2023/05/23 13:47:21;;;;;;;6.60;6.00;;;;;;;18.69;75.88;98261.42;225001;1271;23024;-75
2023/05/23 13:52:37;;;;;;;6.20;5.60;;;;;;;18.96;76.08;98267.93;225196;1275;138113;-75
2023/05/23 13:57:47;;;;;;;5.20;4.70;;;;;;;19.23;75.31;98265.48;225093;1275;138380;-76
2023/05/23 14:02:57;;;;;;;6.40;5.30;;;;;;;19.47;74.69;98270.92;224969;1268;139794;-75
2023/05/23 14:08:06;;;;;;;5.80;5.30;;;;;;;19.59;74.09;98264.85;225072;1282;22555;-75
2023/05/23 14:13:20;;;;;;;6.30;5.80;;;;;;;19.56;73.95;98267.36;225413;1264;22643;-75
2023/05/23 14:18:42;;;;;;;5.90;5.30;;;;;;;19.45;74.33;98266.18;225383;1282;24845;-75
2023/05/23 14:24:13;;;;;;;6.70;4.90;;;;;;;19.35;74.00;98266.48;225155;1281;25311;-75
2023/05/23 14:29:18;;;;;;;5.20;4.80;;;;;;;19.25;73.91;98276.70;225384;1280;22539;-75
2023/05/23 14:34:50;;;;;;;6.60;4.60;;;;;;;19.16;73.30;98286.16;225150;1284;22589;-75
2023/05/23 14:39:56;;;;;;;5.90;5.20;;;;;;;19.08;73.30;98284.48;225125;1286;22549;-75
2023/05/23 14:45:01;;;;;;;5.20;4.70;;;;;;;19.09;73.76;98279.95;225091;1284;22546;-76
2023/05/23 14:50:20;;;;;;;6.70;5.20;;;;;;;19.08;73.45;98286.31;225082;1286;22581;-75
2023/05/23 14:55:26;;;;;;;7.20;5.90;;;;;;;19.13;73.92;98293.48;225054;1285;22576;-77
2023/05/23 15:00:34;;;;;;;8.40;6.60;;;;;;;19.18;74.08;98300.69;225141;1281;22591;-76
2023/05/23 15:05:45;;;;;;;7.70;6.90;;;;;;;19.20;74.34;98300.75;225381;1282;22543;-76
2023/05/23 15:10:58;;;;;;;8.30;7.50;;;;;;;19.21;74.53;98302.48;225497;1282;22558;-77
2023/05/23 15:16:16;;;;;;;7.80;7.10;;;;;;;19.22;75.08;98309.73;225489;1282;22539;-77
2023/05/23 15:21:23;;;;;;;7.20;6.10;;;;;;;19.25;74.80;98305.73;225514;1281;25147;-76
2023/05/23 15:26:38;;;;;;;9.20;7.60;;;;;;;19.21;74.36;98302.27;225602;1278;22558;-75
2023/05/23 15:31:41;;;;;;;9.90;7.90;;;;;;;19.27;74.95;98299.33;225513;1281;22551;-75
2023/05/23 15:36:52;;;;;;;8.70;7.70;;;;;;;19.39;75.31;98294.65;225491;1281;22560;-76
2023/05/23 15:41:58;;;;;;;9.00;8.20;;;;;;;19.50;75.27;98290.78;225602;1278;22615;-76
2023/05/23 15:47:04;;;;;;;8.60;7.80;;;;;;;19.59;75.35;98300.27;225633;1282;22586;-76
2023/05/23 15:52:10;;;;;;;10.30;8.00;;;;;;;19.61;75.42;98300.94;225517;1282;22529;-76
2023/05/23 15:57:23;;;;;;;10.20;9.20;;;;;;;19.62;75.43;98297.35;225572;1282;22544;-75
2023/05/23 16:02:51;;;;;;;;;;;;;;;19.61;75.30;98288.93;225513;1282;22534;-75
2023/05/23 16:08:07;;;;;;;7.60;6.60;;;;;;;19.59;75.07;98291.49;225579;1282;22543;-76
2023/05/23 16:13:41;;;;;;;8.40;7.50;;;;;;;19.55;75.08;98285.95;225503;1282;22562;-76
2023/05/23 16:19:10;;;;;;;6.80;6.10;;;;;;;19.54;74.91;98283.48;225528;1282;24538;-76
2023/05/23 16:24:19;;;;;;;7.20;6.20;;;;;;;19.52;74.55;98283.73;225550;1282;22547;-76
2023/05/23 16:29:35;;;;;;;6.30;5.70;;;;;;;19.45;74.23;98278.50;225669;1282;22557;-77
2023/05/23 16:34:41;;;;;;;8.50;7.70;;;;;;;19.35;74.46;98282.61;225632;1278;24951;-76
2023/05/23 16:39:43;;;;;;;9.70;8.10;;;;;;;19.25;74.71;98285.50;225576;1278;24216;-76
2023/05/23 16:44:51;;;;;;;10.50;9.60;;;;;;;19.19;75.09;98289.66;225569;1262;22531;-76
2023/05/23 16:49:54;;;;;;;11.10;10.00;;;;;;;19.15;75.46;98284.65;225604;1281;22556;-77
2023/05/23 16:55:06;;;;;;;11.50;10.50;;;;;;;19.15;75.81;98284.92;225562;1282;22554;-77
2023/05/23 17:00:10;;;;;;;12.50;11.30;;;;;;;19.13;76.14;98292.20;225582;1265;22579;-77
2023/05/23 17:05:40;;;;;;;13.60;12.30;;;;;;;19.09;76.16;98284.50;225576;1282;23981;-77
2023/05/23 17:11:01;;;;;;;12.50;11.40;;;;;;;19.02;76.45;98283.42;225613;1279;22544;-77
2023/05/23 17:16:10;;;;;;;13.10;11.90;;;;;;;18.94;76.56;98285.38;225605;1282;25409;-78
2023/05/23 17:21:35;;;;;;;15.30;13.50;;;;;;;18.89;77.17;98289.66;225639;1282;22552;-77
2023/05/23 17:26:46;;;;;;;14.80;13.40;;;;;;;18.84;77.68;98293.27;225570;1278;25338;-76
2023/05/23 17:31:51;;;;;;;15.20;13.40;;;;;;;18.78;77.73;98297.27;225598;1282;22539;-77
2023/05/23 17:37:05;;;;;;;14.00;12.70;;;;;;;18.67;77.90;98300.70;225574;1278;22550;-77
2023/05/23 17:42:13;;;;;;;15.10;13.70;;;;;;;18.54;77.99;98297.64;225467;1282;22546;-77
2023/05/23 17:47:20;;;;;;;15.50;13.90;;;;;;;18.42;78.38;98305.42;225523;1281;22527;-77
2023/05/23 17:52:28;;;;;;;15.20;13.70;;;;;;;18.32;78.60;98303.42;225612;1282;22562;-76
2023/05/23 17:57:39;;;;;;;16.10;14.50;;;;;;;18.23;79.04;98305.89;225607;1282;22583;-76
2023/05/23 18:02:50;;;;;;;16.00;14.30;;;;;;;18.15;79.12;98304.17;225563;1282;22577;-76
2023/05/23 18:08:05;;;;;;;19.00;17.00;;;;;;;18.05;79.43;98316.41;225602;1282;22540;-77
2023/05/23 18:13:13;;;;;;;18.20;16.40;;;;;;;18.00;79.65;98319.59;225462;1265;22566;-78
2023/05/23 18:18:16;;;;;;;19.40;17.50;;;;;;;17.94;80.10;98327.55;225427;1282;23024;-76
2023/05/23 18:23:21;;;;;;;17.30;15.60;;;;;;;17.88;79.93;98332.15;225558;1281;22547;-77
2023/05/23 18:28:26;;;;;;;16.00;14.40;;;;;;;17.79;80.15;98338.45;225608;1278;22551;-77
2023/05/23 18:33:37;;;;;;;16.20;14.60;;;;;;;17.72;80.15;98347.48;225611;1282;25154;-77
2023/05/23 18:38:40;;;;;;;17.60;15.40;;;;;;;17.64;80.32;98350.71;225601;1278;22551;-76
2023/05/23 18:43:52;;;;;;;14.40;13.00;;;;;;;17.57;80.59;98354.10;225572;1282;22579;-76
2023/05/23 18:48:58;;;;;;;14.60;13.10;;;;;;;17.46;80.76;98369.58;225454;1282;25242;-75
2023/05/23 18:54:03;;;;;;;14.90;13.40;;;;;;;17.35;80.76;98375.60;225622;1281;22562;-77
2023/05/23 18:59:14;;;;;;;14.60;13.20;;;;;;;17.26;81.18;98376.98;225548;1280;22551;-77
2023/05/23 19:04:37;;;;;;;;;;;;;;;17.16;81.51;98375.11;225620;1276;22621;-77
2023/05/23 19:09:53;;;;;;;15.30;13.80;;;;;;;17.10;81.70;98375.47;225623;1272;22550;-77
2023/05/23 19:15:27;;;;;;;15.30;13.70;;;;;;;17.01;81.70;98375.59;225565;1282;25495;-76
2023/05/23 19:20:38;;;;;;;14.90;13.40;;;;;;;16.90;81.80;98382.96;225573;1281;25670;-76
2023/05/23 19:25:45;;;;;;;15.20;13.70;;;;;;;16.81;82.24;98379.99;225550;1282;25287;-77
2023/05/23 19:31:02;;;;;;;15.10;13.60;;;;;;;16.74;82.52;98380.04;225609;1272;22540;-77
2023/05/23 19:36:12;;;;;;;15.10;13.60;;;;;;;16.66;82.48;98386.59;225615;1282;22554;-77
2023/05/23 19:41:17;;;;;;;15.30;13.70;;;;;;;16.59;82.95;98389.95;225418;1281;24397;-76
2023/05/23 19:46:21;;;;;;;15.50;13.70;;;;;;;16.51;82.86;98388.57;225556;1279;22546;-76
2023/05/23 19:51:30;;;;;;;15.60;14.10;;;;;;;16.45;83.26;98387.44;225558;1282;24213;-77
2023/05/23 19:56:41;;;;;;;18.10;15.20;;;;;;;16.40;83.35;98388.18;225590;1282;22556;-77
2023/05/23 20:01:43;;;;;;;25.90;18.70;;;;;;;16.33;83.46;98391.65;225524;1282;22553;-77
2023/05/23 20:06:45;;;;;;;25.80;18.00;;;;;;;16.25;83.52;98402.36;225544;1276;24253;-77
2023/05/23 20:11:50;;;;;;;19.80;16.70;;;;;;;16.19;83.72;98408.45;225440;1282;22553;-77
2023/05/23 20:16:52;;;;;;;16.80;14.50;;;;;;;16.17;84.00;98404.86;225565;1281;22561;-77
2023/05/23 20:21:56;;;;;;;16.10;14.50;;;;;;;16.16;84.12;98405.59;225535;1282;22545;-77
2023/05/23 20:27:00;;;;;;;15.60;14.10;;;;;;;16.16;84.26;98411.17;225595;1282;22550;-77
2023/05/23 20:32:03;;;;;;;17.10;15.40;;;;;;;16.17;84.43;98418.94;225425;1279;22548;-77
2023/05/23 20:37:05;;;;;;;16.50;15.00;;;;;;;16.18;84.71;98421.23;225494;1282;22578;-77
2023/05/23 20:42:13;;;;;;;16.40;14.70;;;;;;;16.20;84.88;98427.23;225489;1281;24394;-77
2023/05/23 20:47:28;;;;;;;15.30;13.70;;;;;;;16.19;84.74;98439.55;225592;1282;22916;-77
2023/05/23 20:52:56;;;;;;;14.10;12.80;;;;;;;16.21;84.72;98442.42;225522;1282;22547;-76
2023/05/23 20:58:03;;;;;;;14.70;13.20;;;;;;;16.24;84.74;98444.73;225637;1282;22663;-76
2023/05/23 21:03:09;;;;;;;14.90;13.40;;;;;;;16.25;84.94;98447.58;225573;1281;22650;-76
2023/05/23 21:08:32;;;;;;;15.00;13.10;;;;;;;16.25;84.78;98444.17;225561;1282;22561;-76
2023/05/23 21:14:13;;;;;;;15.10;13.50;;;;;;;16.26;84.88;98447.00;225542;1282;22537;-76
2023/05/23 21:19:44;;;;;;;15.00;13.50;;;;;;;16.21;85.04;98449.55;225571;1282;22528;-77
2023/05/23 21:25:07;;;;;;;14.40;13.10;;;;;;;16.19;84.86;98450.31;225637;1282;22626;-76
2023/05/23 21:30:15;;;;;;;15.40;13.60;;;;;;;16.14;85.06;98446.59;225638;1282;23032;-76
2023/05/23 21:35:54;;;;;;;15.10;13.60;;;;;;;16.06;84.93;98446.60;225578;1282;22554;-75
2023/05/23 21:41:15;;;;;;;16.20;13.40;;;;;;;15.95;85.01;98457.08;225055;1286;24260;-77
2023/05/23 21:47:05;;;;;;;13.80;12.40;;;;;;;15.86;85.21;98456.70;225094;1286;23070;-77
2023/05/23 21:52:38;;;;;;;14.40;12.90;;;;;;;15.78;85.33;98464.14;225089;1286;22553;-77
2023/05/23 21:58:11;;;;;;;13.80;12.50;;;;;;;15.72;85.46;98467.16;225185;1286;22723;-76
2023/05/23 22:03:26;;;;;;;14.20;12.80;;;;;;;15.67;85.30;98469.00;225140;1286;22558;-76
2023/05/23 22:08:44;;;;;;;14.40;13.00;;;;;;;15.63;85.66;98471.06;225199;1282;22631;-76
2023/05/23 22:14:33;;;;;;;15.50;14.00;;;;;;;15.58;85.56;98471.88;225545;1282;22633;-76
2023/05/23 22:19:59;;;;;;;16.40;14.70;;;;;;;15.55;85.78;98476.10;225664;1282;22549;-77
2023/05/23 22:25:16;;;;;;;15.60;14.10;;;;;;;15.55;85.80;98481.10;225644;1282;22571;-76
2023/05/23 22:30:30;;;;;;;15.50;14.00;;;;;;;15.55;85.83;98486.02;225627;1282;22557;-76
2023/05/23 22:35:51;;;;;;;15.40;14.00;;;;;;;15.53;86.06;98489.78;225640;1278;22601;-77
2023/05/23 22:41:05;;;;;;;17.60;15.70;;;;;;;15.52;85.94;98489.59;223322;1282;3059571;-77
2023/05/23 22:46:15;;;;;;;20.10;15.10;;;;;;;15.52;86.31;98491.17;225652;1282;22562;-76
2023/05/23 22:51:50;;;;;;;18.70;16.70;;;;;;;15.53;86.17;98491.09;225638;1282;22563;-76
2023/05/23 22:57:06;;;;;;;20.20;18.10;;;;;;;15.55;86.45;98489.25;225585;1282;22556;-76
2023/05/23 23:02:24;;;;;;;19.30;17.30;;;;;;;15.57;86.43;98487.34;225533;1282;22562;-76
2023/05/23 23:07:40;;;;;;;21.20;19.00;;;;;;;15.59;86.41;98480.23;225699;1280;22547;-76
2023/05/23 23:12:54;;;;;;;22.40;20.20;;;;;;;15.59;86.55;98477.27;225524;1282;22608;-76
2023/05/23 23:18:08;;;;;;;22.00;19.60;;;;;;;15.58;86.43;98478.89;225668;1280;24276;-76
2023/05/23 23:23:19;;;;;;;21.20;19.00;;;;;;;15.54;86.38;98477.30;225634;1282;22541;-76
2023/05/23 23:28:55;;;;;;;22.00;19.70;;;;;;;15.49;86.36;98480.16;225604;1282;22557;-76
2023/05/23 23:34:00;;;;;;;22.10;19.90;;;;;;;15.45;86.66;98479.15;225661;1282;24228;-76
2023/05/23 23:39:26;;;;;;;22.90;19.90;;;;;;;15.41;86.60;98480.29;225704;1282;22550;-76